sensor_id;sensor_type;location;lat;lon;timestamp;pressure;altitude;pressure_sealevel;temperature;humidity
69198;BME280;56311;50.298;8.514;2024-03-17T00:00:01;98490.0;;;7.0;62.7
69198;BME280;56311;50.298;8.514;2024-03-17T00:02:00;98480.0;;;6.9;63.1
69198;BME280;56311;50.298;8.514;2024-03-17T00:04:00;98480.0;;;6.9;63.6
69198;BME280;56311;50.298;8.514;2024-03-17T00:06:01;98480.0;;;6.8;64.2
69198;BME280;56311;50.298;8.514;2024-03-17T00:08:00;98480.0;;;6.7;65.0
69198;BME280;56311;50.298;8.514;2024-03-17T00:10:00;98480.0;;;6.7;65.2
69198;BME280;56311;50.298;8.514;2024-03-17T00:12:00;98480.0;;;6.6;65.5
69198;BME280;56311;50.298;8.514;2024-03-17T00:14:00;98480.0;;;6.5;65.5
69198;BME280;56311;50.298;8.514;2024-03-17T00:16:00;98490.0;;;6.5;65.9
69198;BME280;56311;50.298;8.514;2024-03-17T00:18:00;98480.0;;;6.4;66.2
69198;BME280;56311;50.298;8.514;2024-03-17T00:20:00;98480.0;;;6.4;66.4
69198;BME280;56311;50.298;8.514;2024-03-17T00:22:00;98480.0;;;6.3;66.5
69198;BME280;56311;50.298;8.514;2024-03-17T00:24:00;98480.0;;;6.3;66.9
69198;BME280;56311;50.298;8.514;2024-03-17T00:26:00;98480.0;;;6.2;68.2
69198;BME280;56311;50.298;8.514;2024-03-17T00:28:01;98490.0;;;6.1;68.4
69198;BME280;56311;50.298;8.514;2024-03-17T00:30:00;98480.0;;;6.1;68.5
69198;BME280;56311;50.298;8.514;2024-03-17T00:32:00;98480.0;;;6.1;68.4
69198;BME280;56311;50.298;8.514;2024-03-17T00:34:00;98480.0;;;6.1;68.6
69198;BME280;56311;50.298;8.514;2024-03-17T00:36:00;98480.0;;;6.1;68.4
69198;BME280;56311;50.298;8.514;2024-03-17T00:38:00;98470.0;;;6.1;68.7
69198;BME280;56311;50.298;8.514;2024-03-17T00:40:01;98470.0;;;6.0;68.9
69198;BME280;56311;50.298;8.514;2024-03-17T00:42:00;98460.0;;;5.9;68.8
69198;BME280;56311;50.298;8.514;2024-03-17T00:44:00;98470.0;;;5.9;69.1
69198;BME280;56311;50.298;8.514;2024-03-17T00:46:00;98460.0;;;5.8;69.1
69198;BME280;56311;50.298;8.514;2024-03-17T00:48:00;98470.0;;;5.7;69.3
69198;BME280;56311;50.298;8.514;2024-03-17T00:50:00;98460.0;;;5.7;69.3
69198;BME280;56311;50.298;8.514;2024-03-17T00:52:00;98460.0;;;5.6;69.2
69198;BME280;56311;50.298;8.514;2024-03-17T00:54:00;98450.0;;;5.5;69.4
69198;BME280;56311;50.298;8.514;2024-03-17T00:56:00;98440.0;;;5.5;69.6
69198;BME280;56311;50.298;8.514;2024-03-17T00:58:00;98450.0;;;5.5;69.8
69198;BME280;56311;50.298;8.514;2024-03-17T01:00:00;98450.0;;;5.4;70.8
69198;BME280;56311;50.298;8.514;2024-03-17T01:02:00;98440.0;;;5.3;71.0
69198;BME280;56311;50.298;8.514;2024-03-17T01:04:00;98440.0;;;5.3;71.0
69198;BME280;56311;50.298;8.514;2024-03-17T01:06:03;98440.0;;;5.3;70.8
69198;BME280;56311;50.298;8.514;2024-03-17T01:08:00;98440.0;;;5.3;70.3
69198;BME280;56311;50.298;8.514;2024-03-17T01:10:00;98440.0;;;5.2;70.2
69198;BME280;56311;50.298;8.514;2024-03-17T01:12:00;98430.0;;;5.2;70.0
69198;BME280;56311;50.298;8.514;2024-03-17T01:14:00;98430.0;;;5.1;70.4
69198;BME280;56311;50.298;8.514;2024-03-17T01:16:00;98430.0;;;5.1;70.6
69198;BME280;56311;50.298;8.514;2024-03-17T01:18:00;98420.0;;;5.0;70.8
69198;BME280;56311;50.298;8.514;2024-03-17T01:20:00;98420.0;;;5.0;70.8
69198;BME280;56311;50.298;8.514;2024-03-17T01:22:00;98420.0;;;4.9;71.0
69198;BME280;56311;50.298;8.514;2024-03-17T01:24:00;98420.0;;;4.9;70.9
69198;BME280;56311;50.298;8.514;2024-03-17T01:26:01;98420.0;;;4.9;70.6
69198;BME280;56311;50.298;8.514;2024-03-17T01:28:00;98410.0;;;4.9;70.3
69198;BME280;56311;50.298;8.514;2024-03-17T01:30:00;98400.0;;;4.8;70.8
69198;BME280;56311;50.298;8.514;2024-03-17T01:32:00;98410.0;;;4.8;70.7
69198;BME280;56311;50.298;8.514;2024-03-17T01:34:00;98410.0;;;4.7;70.5
69198;BME280;56311;50.298;8.514;2024-03-17T01:36:00;98400.0;;;4.7;70.4
69198;BME280;56311;50.298;8.514;2024-03-17T01:38:00;98400.0;;;4.6;70.5
69198;BME280;56311;50.298;8.514;2024-03-17T01:40:01;98400.0;;;4.6;70.5
69198;BME280;56311;50.298;8.514;2024-03-17T01:42:00;98400.0;;;4.5;70.5
69198;BME280;56311;50.298;8.514;2024-03-17T01:44:00;98400.0;;;4.5;70.9
69198;BME280;56311;50.298;8.514;2024-03-17T01:46:00;98390.0;;;4.6;71.0
69198;BME280;56311;50.298;8.514;2024-03-17T01:48:02;98390.0;;;4.5;70.8
69198;BME280;56311;50.298;8.514;2024-03-17T01:50:00;98390.0;;;4.5;71.1
69198;BME280;56311;50.298;8.514;2024-03-17T01:52:00;98390.0;;;4.4;71.2
69198;BME280;56311;50.298;8.514;2024-03-17T01:54:00;98390.0;;;4.4;70.9
69198;BME280;56311;50.298;8.514;2024-03-17T01:56:00;98390.0;;;4.3;70.9
69198;BME280;56311;50.298;8.514;2024-03-17T01:58:02;98380.0;;;4.3;71.4
69198;BME280;56311;50.298;8.514;2024-03-17T02:00:00;98380.0;;;4.2;71.7
69198;BME280;56311;50.298;8.514;2024-03-17T02:02:00;98380.0;;;4.2;71.8
69198;BME280;56311;50.298;8.514;2024-03-17T02:04:01;98380.0;;;4.1;71.8
69198;BME280;56311;50.298;8.514;2024-03-17T02:06:00;98380.0;;;4.1;71.8
69198;BME280;56311;50.298;8.514;2024-03-17T02:08:00;98380.0;;;4.0;71.7
69198;BME280;56311;50.298;8.514;2024-03-17T02:10:00;98380.0;;;4.0;71.8
69198;BME280;56311;50.298;8.514;2024-03-17T02:12:00;98380.0;;;3.9;72.4
69198;BME280;56311;50.298;8.514;2024-03-17T02:14:00;98380.0;;;3.9;72.4
69198;BME280;56311;50.298;8.514;2024-03-17T02:16:00;98380.0;;;3.9;72.4
69198;BME280;56311;50.298;8.514;2024-03-17T02:18:00;98380.0;;;3.8;72.4
69198;BME280;56311;50.298;8.514;2024-03-17T02:20:00;98380.0;;;3.8;72.8
69198;BME280;56311;50.298;8.514;2024-03-17T02:22:00;98380.0;;;3.8;72.5
69198;BME280;56311;50.298;8.514;2024-03-17T02:24:00;98380.0;;;3.8;72.3
69198;BME280;56311;50.298;8.514;2024-03-17T02:26:00;98380.0;;;3.7;72.3
69198;BME280;56311;50.298;8.514;2024-03-17T02:28:00;98380.0;;;3.7;72.0
69198;BME280;56311;50.298;8.514;2024-03-17T02:30:00;98370.0;;;3.7;72.0
69198;BME280;56311;50.298;8.514;2024-03-17T02:32:00;98370.0;;;3.7;72.0
69198;BME280;56311;50.298;8.514;2024-03-17T02:34:00;98370.0;;;3.7;72.0
69198;BME280;56311;50.298;8.514;2024-03-17T02:36:00;98370.0;;;3.7;71.6
69198;BME280;56311;50.298;8.514;2024-03-17T02:38:00;98370.0;;;3.7;71.5
69198;BME280;56311;50.298;8.514;2024-03-17T02:40:00;98370.0;;;3.6;71.6
69198;BME280;56311;50.298;8.514;2024-03-17T02:42:02;98380.0;;;3.6;72.0
69198;BME280;56311;50.298;8.514;2024-03-17T02:44:00;98370.0;;;3.6;72.1
69198;BME280;56311;50.298;8.514;2024-03-17T02:46:00;98370.0;;;3.5;72.7
69198;BME280;56311;50.298;8.514;2024-03-17T02:48:00;98360.0;;;3.5;72.5
69198;BME280;56311;50.298;8.514;2024-03-17T02:50:00;98360.0;;;3.5;72.3
69198;BME280;56311;50.298;8.514;2024-03-17T02:52:00;98360.0;;;3.4;72.1
69198;BME280;56311;50.298;8.514;2024-03-17T02:54:00;98360.0;;;3.4;72.2
69198;BME280;56311;50.298;8.514;2024-03-17T02:56:00;98360.0;;;3.3;72.2
69198;BME280;56311;50.298;8.514;2024-03-17T02:58:00;98360.0;;;3.3;72.2
69198;BME280;56311;50.298;8.514;2024-03-17T03:00:00;98360.0;;;3.3;72.3
69198;BME280;56311;50.298;8.514;2024-03-17T03:02:00;98360.0;;;3.3;72.4
69198;BME280;56311;50.298;8.514;2024-03-17T03:04:00;98350.0;;;3.3;72.5
69198;BME280;56311;50.298;8.514;2024-03-17T03:06:01;98360.0;;;3.3;72.3
69198;BME280;56311;50.298;8.514;2024-03-17T03:08:00;98350.0;;;3.3;72.2
69198;BME280;56311;50.298;8.514;2024-03-17T03:10:00;98360.0;;;3.3;72.2
69198;BME280;56311;50.298;8.514;2024-03-17T03:12:00;98360.0;;;3.3;72.3
69198;BME280;56311;50.298;8.514;2024-03-17T03:14:00;98360.0;;;3.3;72.4
69198;BME280;56311;50.298;8.514;2024-03-17T03:16:00;98360.0;;;3.3;72.6
69198;BME280;56311;50.298;8.514;2024-03-17T03:18:01;98370.0;;;3.2;72.9
69198;BME280;56311;50.298;8.514;2024-03-17T03:20:00;98370.0;;;3.2;72.6
69198;BME280;56311;50.298;8.514;2024-03-17T03:22:00;98370.0;;;3.2;72.7
69198;BME280;56311;50.298;8.514;2024-03-17T03:24:00;98360.0;;;3.2;72.9
69198;BME280;56311;50.298;8.514;2024-03-17T03:26:01;98360.0;;;3.2;73.0
69198;BME280;56311;50.298;8.514;2024-03-17T03:28:00;98360.0;;;3.2;72.9
69198;BME280;56311;50.298;8.514;2024-03-17T03:30:00;98370.0;;;3.1;72.8
69198;BME280;56311;50.298;8.514;2024-03-17T03:32:00;98370.0;;;3.1;72.8
69198;BME280;56311;50.298;8.514;2024-03-17T03:34:00;98360.0;;;3.1;72.7
69198;BME280;56311;50.298;8.514;2024-03-17T03:36:07;98370.0;;;3.1;73.1
69198;BME280;56311;50.298;8.514;2024-03-17T03:38:00;98370.0;;;3.1;73.0
69198;BME280;56311;50.298;8.514;2024-03-17T03:40:00;98370.0;;;3.1;72.9
69198;BME280;56311;50.298;8.514;2024-03-17T03:42:00;98360.0;;;3.1;72.6
69198;BME280;56311;50.298;8.514;2024-03-17T03:44:00;98370.0;;;3.1;72.4
69198;BME280;56311;50.298;8.514;2024-03-17T03:46:01;98360.0;;;3.0;72.8
69198;BME280;56311;50.298;8.514;2024-03-17T03:48:01;98360.0;;;3.0;72.8
69198;BME280;56311;50.298;8.514;2024-03-17T03:50:00;98370.0;;;3.0;72.7
69198;BME280;56311;50.298;8.514;2024-03-17T03:52:00;98370.0;;;2.9;73.0
69198;BME280;56311;50.298;8.514;2024-03-17T03:54:00;98380.0;;;2.9;73.1
69198;BME280;56311;50.298;8.514;2024-03-17T03:56:03;98380.0;;;2.9;73.1
69198;BME280;56311;50.298;8.514;2024-03-17T03:58:00;98380.0;;;2.9;73.2
69198;BME280;56311;50.298;8.514;2024-03-17T04:00:00;98380.0;;;2.9;72.9
69198;BME280;56311;50.298;8.514;2024-03-17T04:02:00;98380.0;;;2.8;72.8
69198;BME280;56311;50.298;8.514;2024-03-17T04:04:00;98380.0;;;2.8;72.8
69198;BME280;56311;50.298;8.514;2024-03-17T04:06:03;98370.0;;;2.7;73.5
69198;BME280;56311;50.298;8.514;2024-03-17T04:08:00;98380.0;;;2.7;74.0
69198;BME280;56311;50.298;8.514;2024-03-17T04:10:00;98380.0;;;2.7;74.0
69198;BME280;56311;50.298;8.514;2024-03-17T04:12:00;98380.0;;;2.7;73.7
69198;BME280;56311;50.298;8.514;2024-03-17T04:14:00;98380.0;;;2.7;73.2
69198;BME280;56311;50.298;8.514;2024-03-17T04:16:03;98390.0;;;2.6;74.1
69198;BME280;56311;50.298;8.514;2024-03-17T04:18:00;98380.0;;;2.6;74.2
69198;BME280;56311;50.298;8.514;2024-03-17T04:20:00;98380.0;;;2.6;73.7
69198;BME280;56311;50.298;8.514;2024-03-17T04:22:00;98380.0;;;2.6;73.4
69198;BME280;56311;50.298;8.514;2024-03-17T04:24:00;98380.0;;;2.6;73.5
69198;BME280;56311;50.298;8.514;2024-03-17T04:26:01;98380.0;;;2.5;73.8
69198;BME280;56311;50.298;8.514;2024-03-17T04:28:00;98380.0;;;2.6;74.6
69198;BME280;56311;50.298;8.514;2024-03-17T04:30:00;98380.0;;;2.5;74.8
69198;BME280;56311;50.298;8.514;2024-03-17T04:32:00;98380.0;;;2.5;74.3
69198;BME280;56311;50.298;8.514;2024-03-17T04:34:00;98380.0;;;2.4;74.8
69198;BME280;56311;50.298;8.514;2024-03-17T04:36:01;98380.0;;;2.4;74.7
69198;BME280;56311;50.298;8.514;2024-03-17T04:38:00;98380.0;;;2.4;74.4
69198;BME280;56311;50.298;8.514;2024-03-17T04:40:00;98380.0;;;2.4;74.6
69198;BME280;56311;50.298;8.514;2024-03-17T04:42:00;98380.0;;;2.4;74.3
69198;BME280;56311;50.298;8.514;2024-03-17T04:44:00;98380.0;;;2.4;74.4
69198;BME280;56311;50.298;8.514;2024-03-17T04:46:02;98380.0;;;2.3;74.9
69198;BME280;56311;50.298;8.514;2024-03-17T04:48:00;98380.0;;;2.3;75.6
69198;BME280;56311;50.298;8.514;2024-03-17T04:50:00;98380.0;;;2.3;75.5
69198;BME280;56311;50.298;8.514;2024-03-17T04:52:01;98380.0;;;2.4;75.0
69198;BME280;56311;50.298;8.514;2024-03-17T04:54:00;98380.0;;;2.4;75.1
69198;BME280;56311;50.298;8.514;2024-03-17T04:56:01;98380.0;;;2.4;75.7
69198;BME280;56311;50.298;8.514;2024-03-17T04:58:00;98380.0;;;2.4;75.8
69198;BME280;56311;50.298;8.514;2024-03-17T05:00:00;98380.0;;;2.4;75.9
69198;BME280;56311;50.298;8.514;2024-03-17T05:02:01;98380.0;;;2.4;76.4
69198;BME280;56311;50.298;8.514;2024-03-17T05:04:00;98380.0;;;2.4;76.2
69198;BME280;56311;50.298;8.514;2024-03-17T05:06:01;98380.0;;;2.3;76.4
69198;BME280;56311;50.298;8.514;2024-03-17T05:08:00;98390.0;;;2.3;76.8
69198;BME280;56311;50.298;8.514;2024-03-17T05:10:00;98380.0;;;2.4;76.5
69198;BME280;56311;50.298;8.514;2024-03-17T05:12:00;98380.0;;;2.4;76.6
69198;BME280;56311;50.298;8.514;2024-03-17T05:14:00;98390.0;;;2.4;76.3
69198;BME280;56311;50.298;8.514;2024-03-17T05:16:01;98390.0;;;2.4;76.3
69198;BME280;56311;50.298;8.514;2024-03-17T05:18:00;98380.0;;;2.4;76.2
69198;BME280;56311;50.298;8.514;2024-03-17T05:20:00;98380.0;;;2.4;76.1
69198;BME280;56311;50.298;8.514;2024-03-17T05:22:00;98380.0;;;2.4;76.3
69198;BME280;56311;50.298;8.514;2024-03-17T05:24:01;98380.0;;;2.4;76.8
69198;BME280;56311;50.298;8.514;2024-03-17T05:26:00;98380.0;;;2.4;77.0
69198;BME280;56311;50.298;8.514;2024-03-17T05:28:00;98380.0;;;2.3;77.0
69198;BME280;56311;50.298;8.514;2024-03-17T05:30:00;98380.0;;;2.4;77.2
69198;BME280;56311;50.298;8.514;2024-03-17T05:32:00;98380.0;;;2.4;77.2
69198;BME280;56311;50.298;8.514;2024-03-17T05:34:00;98370.0;;;2.4;76.8
69198;BME280;56311;50.298;8.514;2024-03-17T05:36:02;98370.0;;;2.4;76.3
69198;BME280;56311;50.298;8.514;2024-03-17T05:38:00;98370.0;;;2.4;76.6
69198;BME280;56311;50.298;8.514;2024-03-17T05:40:00;98370.0;;;2.4;76.4
69198;BME280;56311;50.298;8.514;2024-03-17T05:42:00;98370.0;;;2.4;76.3
69198;BME280;56311;50.298;8.514;2024-03-17T05:44:00;98370.0;;;2.4;76.9
69198;BME280;56311;50.298;8.514;2024-03-17T05:46:00;98370.0;;;2.4;76.6
69198;BME280;56311;50.298;8.514;2024-03-17T05:48:00;98380.0;;;2.4;76.7
69198;BME280;56311;50.298;8.514;2024-03-17T05:50:00;98380.0;;;2.4;76.4
69198;BME280;56311;50.298;8.514;2024-03-17T05:52:00;98380.0;;;2.4;76.5
69198;BME280;56311;50.298;8.514;2024-03-17T05:54:00;98370.0;;;2.4;76.5
69198;BME280;56311;50.298;8.514;2024-03-17T05:56:00;98370.0;;;2.4;76.2
69198;BME280;56311;50.298;8.514;2024-03-17T05:58:00;98370.0;;;2.4;76.0
69198;BME280;56311;50.298;8.514;2024-03-17T06:00:00;98380.0;;;2.5;75.9
69198;BME280;56311;50.298;8.514;2024-03-17T06:02:00;98370.0;;;2.4;76.0
69198;BME280;56311;50.298;8.514;2024-03-17T06:04:00;98380.0;;;2.4;76.3
69198;BME280;56311;50.298;8.514;2024-03-17T06:06:00;98380.0;;;2.5;76.1
69198;BME280;56311;50.298;8.514;2024-03-17T06:08:00;98380.0;;;2.5;76.1
69198;BME280;56311;50.298;8.514;2024-03-17T06:10:00;98380.0;;;2.6;76.4
69198;BME280;56311;50.298;8.514;2024-03-17T06:12:01;98370.0;;;2.6;76.3
69198;BME280;56311;50.298;8.514;2024-03-17T06:14:00;98370.0;;;2.6;77.0
69198;BME280;56311;50.298;8.514;2024-03-17T06:16:02;98370.0;;;2.6;76.9
69198;BME280;56311;50.298;8.514;2024-03-17T06:18:00;98370.0;;;2.6;77.1
69198;BME280;56311;50.298;8.514;2024-03-17T06:20:00;98380.0;;;2.7;76.8
69198;BME280;56311;50.298;8.514;2024-03-17T06:22:01;98380.0;;;2.7;76.9
69198;BME280;56311;50.298;8.514;2024-03-17T06:24:00;98370.0;;;2.7;76.6
69198;BME280;56311;50.298;8.514;2024-03-17T06:26:00;98380.0;;;2.7;76.8
69198;BME280;56311;50.298;8.514;2024-03-17T06:28:00;98380.0;;;2.7;76.7
69198;BME280;56311;50.298;8.514;2024-03-17T06:30:00;98380.0;;;2.7;76.8
69198;BME280;56311;50.298;8.514;2024-03-17T06:32:00;98380.0;;;2.8;76.2
69198;BME280;56311;50.298;8.514;2024-03-17T06:34:00;98380.0;;;2.8;76.2
69198;BME280;56311;50.298;8.514;2024-03-17T06:36:01;98380.0;;;2.9;76.2
69198;BME280;56311;50.298;8.514;2024-03-17T06:38:00;98370.0;;;2.9;76.3
69198;BME280;56311;50.298;8.514;2024-03-17T06:40:00;98370.0;;;3.0;76.3
69198;BME280;56311;50.298;8.514;2024-03-17T06:42:00;98370.0;;;3.1;75.8
69198;BME280;56311;50.298;8.514;2024-03-17T06:44:00;98370.0;;;3.2;75.3
69198;BME280;56311;50.298;8.514;2024-03-17T06:46:01;98370.0;;;3.3;75.7
69198;BME280;56311;50.298;8.514;2024-03-17T06:48:00;98370.0;;;3.4;75.6
69198;BME280;56311;50.298;8.514;2024-03-17T06:50:00;98360.0;;;3.5;75.6
69198;BME280;56311;50.298;8.514;2024-03-17T06:52:00;98360.0;;;3.5;75.5
69198;BME280;56311;50.298;8.514;2024-03-17T06:54:00;98360.0;;;3.5;76.3
69198;BME280;56311;50.298;8.514;2024-03-17T06:56:00;98370.0;;;3.5;75.9
69198;BME280;56311;50.298;8.514;2024-03-17T06:58:00;98370.0;;;3.6;75.5
69198;BME280;56311;50.298;8.514;2024-03-17T07:00:00;98370.0;;;3.6;75.0
69198;BME280;56311;50.298;8.514;2024-03-17T07:02:00;98360.0;;;3.7;75.0
69198;BME280;56311;50.298;8.514;2024-03-17T07:04:01;98360.0;;;3.8;75.0
69198;BME280;56311;50.298;8.514;2024-03-17T07:06:01;98360.0;;;3.8;74.9
69198;BME280;56311;50.298;8.514;2024-03-17T07:08:00;98360.0;;;3.9;74.6
69198;BME280;56311;50.298;8.514;2024-03-17T07:10:00;98360.0;;;4.0;73.8
69198;BME280;56311;50.298;8.514;2024-03-17T07:12:00;98360.0;;;4.0;74.1
69198;BME280;56311;50.298;8.514;2024-03-17T07:14:00;98360.0;;;4.1;74.4
69198;BME280;56311;50.298;8.514;2024-03-17T07:16:01;98360.0;;;4.2;74.5
69198;BME280;56311;50.298;8.514;2024-03-17T07:18:00;98360.0;;;4.2;74.1
69198;BME280;56311;50.298;8.514;2024-03-17T07:20:01;98360.0;;;4.3;73.9
69198;BME280;56311;50.298;8.514;2024-03-17T07:22:00;98360.0;;;4.3;73.7
69198;BME280;56311;50.298;8.514;2024-03-17T07:24:00;98360.0;;;4.4;73.6
69198;BME280;56311;50.298;8.514;2024-03-17T07:26:01;98360.0;;;4.5;73.2
69198;BME280;56311;50.298;8.514;2024-03-17T07:28:00;98360.0;;;4.6;73.5
69198;BME280;56311;50.298;8.514;2024-03-17T07:30:00;98360.0;;;4.7;72.3
69198;BME280;56311;50.298;8.514;2024-03-17T07:32:00;98360.0;;;4.8;71.7
69198;BME280;56311;50.298;8.514;2024-03-17T07:34:00;98360.0;;;5.0;71.6
69198;BME280;56311;50.298;8.514;2024-03-17T07:36:00;98350.0;;;5.1;71.2
69198;BME280;56311;50.298;8.514;2024-03-17T07:38:00;98350.0;;;5.3;70.9
69198;BME280;56311;50.298;8.514;2024-03-17T07:40:00;98340.0;;;5.4;70.6
69198;BME280;56311;50.298;8.514;2024-03-17T07:42:01;98340.0;;;5.5;70.4
69198;BME280;56311;50.298;8.514;2024-03-17T07:44:00;98340.0;;;5.6;70.1
69198;BME280;56311;50.298;8.514;2024-03-17T07:46:01;98350.0;;;5.6;69.6
69198;BME280;56311;50.298;8.514;2024-03-17T07:48:01;98350.0;;;5.7;69.6
69198;BME280;56311;50.298;8.514;2024-03-17T07:50:00;98350.0;;;5.8;70.0
69198;BME280;56311;50.298;8.514;2024-03-17T07:52:00;98350.0;;;6.0;68.9
69198;BME280;56311;50.298;8.514;2024-03-17T07:54:00;98350.0;;;6.2;65.5
69198;BME280;56311;50.298;8.514;2024-03-17T07:56:01;98340.0;;;6.5;64.8
69198;BME280;56311;50.298;8.514;2024-03-17T07:58:00;98340.0;;;6.7;61.8
69198;BME280;56311;50.298;8.514;2024-03-17T08:00:00;98340.0;;;7.0;59.1
69198;BME280;56311;50.298;8.514;2024-03-17T08:02:00;98340.0;;;7.2;57.9
69198;BME280;56311;50.298;8.514;2024-03-17T08:04:00;98330.0;;;7.5;57.2
69198;BME280;56311;50.298;8.514;2024-03-17T08:06:02;98340.0;;;7.7;56.8
69198;BME280;56311;50.298;8.514;2024-03-17T08:08:00;98340.0;;;7.9;55.8
69198;BME280;56311;50.298;8.514;2024-03-17T08:10:00;98330.0;;;8.0;54.4
69198;BME280;56311;50.298;8.514;2024-03-17T08:12:00;98330.0;;;8.1;54.3
69198;BME280;56311;50.298;8.514;2024-03-17T08:14:00;98330.0;;;8.2;55.5
69198;BME280;56311;50.298;8.514;2024-03-17T08:16:02;98340.0;;;8.3;54.1
69198;BME280;56311;50.298;8.514;2024-03-17T08:18:00;98330.0;;;8.4;53.5
69198;BME280;56311;50.298;8.514;2024-03-17T08:20:00;98340.0;;;8.5;54.0
69198;BME280;56311;50.298;8.514;2024-03-17T08:22:00;98340.0;;;8.6;53.5
69198;BME280;56311;50.298;8.514;2024-03-17T08:24:01;98340.0;;;8.6;53.0
69198;BME280;56311;50.298;8.514;2024-03-17T08:26:00;98340.0;;;8.7;52.7
69198;BME280;56311;50.298;8.514;2024-03-17T08:28:01;98340.0;;;8.8;52.2
69198;BME280;56311;50.298;8.514;2024-03-17T08:30:00;98340.0;;;8.9;51.8
69198;BME280;56311;50.298;8.514;2024-03-17T08:32:00;98340.0;;;8.9;52.5
69198;BME280;56311;50.298;8.514;2024-03-17T08:34:00;98340.0;;;8.9;51.6
69198;BME280;56311;50.298;8.514;2024-03-17T08:36:02;98340.0;;;9.0;52.7
69198;BME280;56311;50.298;8.514;2024-03-17T08:38:00;98340.0;;;9.0;52.2
69198;BME280;56311;50.298;8.514;2024-03-17T08:40:01;98330.0;;;9.2;52.0
69198;BME280;56311;50.298;8.514;2024-03-17T08:42:00;98330.0;;;9.2;52.0
69198;BME280;56311;50.298;8.514;2024-03-17T08:44:00;98330.0;;;9.3;51.3
69198;BME280;56311;50.298;8.514;2024-03-17T08:46:02;98320.0;;;9.4;50.8
69198;BME280;56311;50.298;8.514;2024-03-17T08:48:00;98320.0;;;9.4;51.3
69198;BME280;56311;50.298;8.514;2024-03-17T08:50:00;98330.0;;;9.5;51.4
69198;BME280;56311;50.298;8.514;2024-03-17T08:52:00;98330.0;;;9.6;51.0
69198;BME280;56311;50.298;8.514;2024-03-17T08:54:00;98340.0;;;9.8;50.5
69198;BME280;56311;50.298;8.514;2024-03-17T08:56:03;98330.0;;;9.9;50.4
69198;BME280;56311;50.298;8.514;2024-03-17T08:58:00;98320.0;;;10.0;50.1
69198;BME280;56311;50.298;8.514;2024-03-17T09:00:00;98320.0;;;10.1;50.0
69198;BME280;56311;50.298;8.514;2024-03-17T09:02:00;98320.0;;;10.1;50.2
69198;BME280;56311;50.298;8.514;2024-03-17T09:04:00;98320.0;;;10.2;49.7
69198;BME280;56311;50.298;8.514;2024-03-17T09:06:00;98320.0;;;10.3;49.8
69198;BME280;56311;50.298;8.514;2024-03-17T09:08:00;98320.0;;;10.5;50.1
69198;BME280;56311;50.298;8.514;2024-03-17T09:10:00;98320.0;;;10.5;49.4
69198;BME280;56311;50.298;8.514;2024-03-17T09:12:00;98330.0;;;10.6;49.8
69198;BME280;56311;50.298;8.514;2024-03-17T09:14:00;98330.0;;;10.6;49.7
69198;BME280;56311;50.298;8.514;2024-03-17T09:16:01;98340.0;;;10.4;50.4
69198;BME280;56311;50.298;8.514;2024-03-17T09:18:01;98340.0;;;10.4;50.3
69198;BME280;56311;50.298;8.514;2024-03-17T09:20:00;98340.0;;;10.3;51.3
69198;BME280;56311;50.298;8.514;2024-03-17T09:22:00;98340.0;;;10.1;51.4
69198;BME280;56311;50.298;8.514;2024-03-17T09:24:00;98340.0;;;10.0;52.2
69198;BME280;56311;50.298;8.514;2024-03-17T09:26:02;98330.0;;;9.9;52.2
69198;BME280;56311;50.298;8.514;2024-03-17T09:28:00;98320.0;;;9.8;52.5
69198;BME280;56311;50.298;8.514;2024-03-17T09:30:00;98320.0;;;9.7;52.5
69198;BME280;56311;50.298;8.514;2024-03-17T09:32:01;98330.0;;;9.7;52.7
69198;BME280;56311;50.298;8.514;2024-03-17T09:34:00;98320.0;;;9.7;53.2
69198;BME280;56311;50.298;8.514;2024-03-17T09:36:01;98320.0;;;9.7;53.1
69198;BME280;56311;50.298;8.514;2024-03-17T09:38:00;98310.0;;;9.7;52.6
69198;BME280;56311;50.298;8.514;2024-03-17T09:40:00;98310.0;;;9.7;52.9
69198;BME280;56311;50.298;8.514;2024-03-17T09:42:02;98310.0;;;9.6;53.1
69198;BME280;56311;50.298;8.514;2024-03-17T09:44:00;98310.0;;;9.6;53.1
69198;BME280;56311;50.298;8.514;2024-03-17T09:46:02;98320.0;;;9.6;53.2
69198;BME280;56311;50.298;8.514;2024-03-17T09:48:00;98310.0;;;9.7;53.8
69198;BME280;56311;50.298;8.514;2024-03-17T09:50:00;98320.0;;;9.7;53.1
69198;BME280;56311;50.298;8.514;2024-03-17T09:52:01;98320.0;;;9.7;53.4
69198;BME280;56311;50.298;8.514;2024-03-17T09:54:00;98310.0;;;9.8;53.1
69198;BME280;56311;50.298;8.514;2024-03-17T09:56:03;98310.0;;;9.9;52.4
69198;BME280;56311;50.298;8.514;2024-03-17T09:58:00;98310.0;;;9.9;52.2
69198;BME280;56311;50.298;8.514;2024-03-17T10:00:04;98310.0;;;9.9;51.6
69198;BME280;56311;50.298;8.514;2024-03-17T10:02:03;98300.0;;;10.0;52.7
69198;BME280;56311;50.298;8.514;2024-03-17T10:04:00;98300.0;;;10.0;53.4
69198;BME280;56311;50.298;8.514;2024-03-17T10:06:00;98300.0;;;10.1;52.8
69198;BME280;56311;50.298;8.514;2024-03-17T10:08:00;98300.0;;;10.0;53.3
69198;BME280;56311;50.298;8.514;2024-03-17T10:10:10;98300.0;;;10.1;52.4
69198;BME280;56311;50.298;8.514;2024-03-17T10:12:00;98300.0;;;10.0;53.3
69198;BME280;56311;50.298;8.514;2024-03-17T10:14:01;98300.0;;;10.0;53.4
69198;BME280;56311;50.298;8.514;2024-03-17T10:16:00;98290.0;;;10.0;53.9
69198;BME280;56311;50.298;8.514;2024-03-17T10:18:00;98300.0;;;10.0;54.1
69198;BME280;56311;50.298;8.514;2024-03-17T10:22:00;98290.0;;;10.1;53.0
69198;BME280;56311;50.298;8.514;2024-03-17T10:24:09;98280.0;;;10.2;52.9
69198;BME280;56311;50.298;8.514;2024-03-17T10:26:00;98280.0;;;10.2;53.5
69198;BME280;56311;50.298;8.514;2024-03-17T10:28:01;98290.0;;;10.3;52.7
69198;BME280;56311;50.298;8.514;2024-03-17T10:30:00;98290.0;;;10.4;53.0
69198;BME280;56311;50.298;8.514;2024-03-17T10:32:03;98290.0;;;10.6;51.7
69198;BME280;56311;50.298;8.514;2024-03-17T10:34:02;98290.0;;;10.7;51.6
69198;BME280;56311;50.298;8.514;2024-03-17T10:36:01;98290.0;;;10.9;51.3
69198;BME280;56311;50.298;8.514;2024-03-17T10:38:02;98290.0;;;10.9;50.8
69198;BME280;56311;50.298;8.514;2024-03-17T10:40:03;98290.0;;;11.0;50.9
69198;BME280;56311;50.298;8.514;2024-03-17T10:42:01;98290.0;;;11.0;51.0
69198;BME280;56311;50.298;8.514;2024-03-17T10:44:00;98290.0;;;11.0;51.2
69198;BME280;56311;50.298;8.514;2024-03-17T10:46:01;98300.0;;;11.1;51.2
69198;BME280;56311;50.298;8.514;2024-03-17T10:48:01;98310.0;;;11.3;50.8
69198;BME280;56311;50.298;8.514;2024-03-17T10:50:01;98300.0;;;11.5;49.9
69198;BME280;56311;50.298;8.514;2024-03-17T10:52:02;98300.0;;;11.7;50.2
69198;BME280;56311;50.298;8.514;2024-03-17T10:54:01;98300.0;;;11.8;50.0
69198;BME280;56311;50.298;8.514;2024-03-17T10:56:04;98290.0;;;11.8;48.9
69198;BME280;56311;50.298;8.514;2024-03-17T10:58:01;98290.0;;;11.9;49.5
69198;BME280;56311;50.298;8.514;2024-03-17T11:00:02;98290.0;;;11.9;50.1
69198;BME280;56311;50.298;8.514;2024-03-17T11:02:01;98300.0;;;11.9;50.2
69198;BME280;56311;50.298;8.514;2024-03-17T11:04:00;98300.0;;;12.0;49.5
69198;BME280;56311;50.298;8.514;2024-03-17T11:06:02;98290.0;;;12.1;48.8
69198;BME280;56311;50.298;8.514;2024-03-17T11:08:01;98290.0;;;12.1;48.8
69198;BME280;56311;50.298;8.514;2024-03-17T11:10:00;98290.0;;;12.0;48.6